Time;durP1;ratioP1;P1;durP2;ratioP2;P2;SDS_P1;SDS_P2;PMS_P1;PMS_P2;Temp;Humidity;BMP_temperature;BMP_pressure;BME280_temperature;BME280_humidity;BME280_pressure;Samples;Min_cycle;Max_cycle;Signal;HPM_P1;HPM_P2
2021/01/19 00:00:12;;;;;;;5.70;4.97;;;2.20;73.80;;;;;;5067120;28;20455;-79
2021/01/19 00:02:39;;;;;;;8.90;4.87;;;2.20;73.80;;;;;;5079462;28;20801;-80
2021/01/19 00:05:10;;;;;;;9.40;5.40;;;2.20;73.90;;;;;;5075361;28;20463;-79
2021/01/19 00:07:36;;;;;;;8.37;4.50;;;2.10;73.90;;;;;;5058954;28;20529;-79
2021/01/19 00:10:05;;;;;;;5.73;5.00;;;2.20;73.90;;;;;;5063749;28;20472;-80
2021/01/19 00:12:31;;;;;;;7.50;5.30;;;2.20;73.90;;;;;;5065274;28;20475;-81
2021/01/19 00:14:58;;;;;;;6.67;5.07;;;2.20;74.00;;;;;;5066735;28;21195;-80
2021/01/19 00:17:25;;;;;;;6.20;4.20;;;2.20;74.00;;;;;;5061754;28;20471;-79
2021/01/19 00:19:52;;;;;;;6.20;4.67;;;2.20;73.80;;;;;;5063218;28;20455;-79
2021/01/19 00:22:18;;;;;;;7.03;3.87;;;2.20;73.80;;;;;;5063781;28;20604;-82
2021/01/19 00:24:45;;;;;;;5.93;4.47;;;2.20;73.90;;;;;;5066088;28;20459;-81
2021/01/19 00:27:12;;;;;;;6.07;3.90;;;2.20;73.80;;;;;;5059183;28;20531;-79
2021/01/19 00:29:38;;;;;;;6.17;4.47;;;2.20;73.90;;;;;;5060488;28;20557;-79
2021/01/19 00:32:07;;;;;;;5.70;4.20;;;2.30;73.80;;;;;;5067301;28;20467;-79
2021/01/19 00:34:35;;;;;;;7.20;4.43;;;2.20;73.80;;;;;;5062274;28;20453;-80
2021/01/19 00:37:01;;;;;;;6.17;4.50;;;2.20;73.80;;;;;;5058294;28;20464;-80
2021/01/19 00:39:28;;;;;;;8.77;4.30;;;2.20;73.70;;;;;;5075729;28;20459;-80
2021/01/19 00:41:56;;;;;;;6.37;4.37;;;2.20;73.70;;;;;;5085582;28;20513;-80
2021/01/19 00:44:25;;;;;;;8.70;4.23;;;2.20;73.60;;;;;;5091426;28;20450;-79
2021/01/19 00:46:51;;;;;;;5.33;3.60;;;2.20;73.50;;;;;;5092622;28;20437;-79
2021/01/19 00:49:21;;;;;;;8.10;4.60;;;2.20;73.70;;;;;;5090281;28;20476;-79
2021/01/19 00:51:49;;;;;;;5.03;4.47;;;2.20;73.60;;;;;;5073594;28;20563;-79
2021/01/19 00:54:16;;;;;;;6.40;4.00;;;2.20;73.60;;;;;;5066369;28;20443;-79
2021/01/19 00:56:43;;;;;;;5.47;4.30;;;2.20;73.70;;;;;;5066711;28;20450;-80
2021/01/19 00:59:10;;;;;;;4.23;3.83;;;2.20;73.60;;;;;;5066650;28;20449;-80
2021/01/19 01:01:44;;;;;;;5.67;3.87;;;2.20;73.60;;;;;;5062848;28;20464;-79
2021/01/19 01:04:11;;;;;;;6.77;3.70;;;2.30;73.70;;;;;;5060476;28;20983;-79
2021/01/19 01:06:38;;;;;;;5.97;4.20;;;2.20;73.40;;;;;;5059648;28;20817;-79
2021/01/19 01:09:07;;;;;;;4.90;4.40;;;2.20;73.50;;;;;;5062297;28;20484;-79
2021/01/19 01:11:38;;;;;;;3.47;3.07;;;2.20;73.50;;;;;;5067570;28;20580;-79
2021/01/19 01:14:06;;;;;;;5.57;3.53;;;2.20;73.30;;;;;;5063518;28;20989;-79
2021/01/19 01:16:33;;;;;;;6.80;4.13;;;2.20;73.50;;;;;;5059702;28;20458;-80
2021/01/19 01:19:00;;;;;;;5.73;3.63;;;2.20;73.50;;;;;;5070845;28;20462;-79
2021/01/19 01:21:27;;;;;;;4.80;3.73;;;2.20;73.30;;;;;;5064976;28;20513;-79
2021/01/19 01:23:53;;;;;;;5.00;3.47;;;2.20;73.30;;;;;;5059247;28;20494;-79
2021/01/19 01:26:23;;;;;;;6.13;4.03;;;2.20;73.40;;;;;;5065850;28;20459;-78
2021/01/19 01:28:49;;;;;;;7.40;4.13;;;2.20;73.40;;;;;;5069405;28;20459;-80
2021/01/19 01:31:19;;;;;;;5.40;3.30;;;2.10;73.30;;;;;;5064975;28;20788;-80
2021/01/19 01:33:46;;;;;;;6.53;3.43;;;2.20;73.50;;;;;;5061702;28;20550;-80
2021/01/19 01:36:12;;;;;;;5.90;4.03;;;2.20;73.30;;;;;;5059260;28;20448;-79
2021/01/19 01:38:39;;;;;;;6.33;3.90;;;2.20;73.30;;;;;;5059317;28;20447;-79
2021/01/19 01:41:12;;;;;;;5.83;3.60;;;2.20;73.20;;;;;;5061977;28;20458;-82
2021/01/19 01:43:40;;;;;;;7.40;3.90;;;2.20;73.10;;;;;;5071439;28;20451;-80
2021/01/19 01:46:08;;;;;;;6.87;3.67;;;2.20;73.60;;;;;;5065487;28;20483;-79
2021/01/19 01:48:35;;;;;;;3.33;3.03;;;2.20;73.20;;;;;;5062331;28;20990;-79
2021/01/19 01:51:02;;;;;;;3.40;3.10;;;2.20;73.30;;;;;;5061556;28;20470;-81
2021/01/19 01:53:29;;;;;;;4.90;3.60;;;2.20;73.30;;;;;;5060951;28;20456;-79
2021/01/19 01:55:55;;;;;;;3.90;3.50;;;2.20;73.00;;;;;;5064357;28;20987;-80
2021/01/19 01:58:22;;;;;;;3.40;3.10;;;2.20;72.90;;;;;;5070013;28;21030;-83
2021/01/19 02:00:50;;;;;;;5.80;3.50;;;2.20;72.90;;;;;;5075144;28;20448;-84
2021/01/19 02:03:18;;;;;;;5.27;3.33;;;2.20;72.90;;;;;;5071233;28;20474;-82
2021/01/19 02:05:45;;;;;;;4.07;3.37;;;2.30;72.90;;;;;;5064916;28;20464;-82
2021/01/19 02:08:24;;;;;;;5.80;3.10;;;2.20;72.90;;;;;;5058267;28;20464;-83
2021/01/19 02:10:59;;;;;;;4.73;3.10;;;2.20;72.70;;;;;;5063197;28;20518;-84
2021/01/19 02:13:35;;;;;;;6.07;3.27;;;2.20;73.00;;;;;;5062653;28;20478;-82
2021/01/19 02:16:21;;;;;;;6.40;3.27;;;2.30;72.80;;;;;;5067688;28;20466;-82
2021/01/19 02:19:00;;;;;;;8.50;3.67;;;2.20;72.70;;;;;;5068545;28;20463;-83
2021/01/19 02:22:00;;;;;;;5.10;3.53;;;2.20;72.80;;;;;;5076107;28;20443;-81
2021/01/19 02:24:34;;;;;;;3.97;3.00;;;2.20;72.70;;;;;;5075233;28;20465;-82
2021/01/19 02:27:29;;;;;;;3.97;2.60;;;2.20;72.90;;;;;;5069617;28;20503;-82
2021/01/19 02:30:19;;;;;;;4.57;2.80;;;2.20;72.80;;;;;;5070457;28;20468;-83
2021/01/19 02:32:59;;;;;;;5.20;3.10;;;2.20;72.70;;;;;;5074301;28;20493;-83
2021/01/19 02:35:31;;;;;;;4.70;2.93;;;2.20;72.60;;;;;;5070104;28;20934;-82
2021/01/19 02:38:07;;;;;;;7.33;3.30;;;2.20;72.50;;;;;;5068547;28;21135;-84
2021/01/19 02:40:34;;;;;;;5.70;2.70;;;2.20;72.50;;;;;;5069058;28;20466;-82
2021/01/19 02:43:12;;;;;;;4.20;3.00;;;2.20;72.60;;;;;;5081345;28;20577;-83
2021/01/19 02:45:39;;;;;;;4.73;2.73;;;2.20;72.50;;;;;;5076702;28;20441;-83
2021/01/19 02:48:06;;;;;;;4.70;3.20;;;2.20;72.40;;;;;;5077596;28;20447;-82
2021/01/19 02:50:33;;;;;;;4.57;2.97;;;2.20;72.40;;;;;;5079476;28;20470;-82
2021/01/19 02:53:03;;;;;;;4.87;2.60;;;2.20;72.50;;;;;;5075977;28;20455;-82
2021/01/19 02:55:32;;;;;;;5.37;3.40;;;2.20;72.40;;;;;;5075240;28;20450;-82
2021/01/19 02:58:05;;;;;;;5.90;2.70;;;2.10;72.10;;;;;;5076284;28;20458;-82
2021/01/19 03:00:48;;;;;;;5.23;2.37;;;2.10;72.30;;;;;;5074858;28;20466;-83
2021/01/19 03:03:16;;;;;;;7.90;3.27;;;2.10;72.40;;;;;;5084962;28;20455;-82
2021/01/19 03:05:44;;;;;;;3.67;3.07;;;2.10;72.30;;;;;;5088417;28;20450;-84
2021/01/19 03:08:14;;;;;;;2.87;2.57;;;2.00;72.60;;;;;;5092754;28;20462;-83
2021/01/19 03:10:43;;;;;;;4.90;3.33;;;2.10;72.50;;;;;;5072509;28;20527;-83
2021/01/19 03:13:16;;;;;;;5.27;3.10;;;1.90;72.30;;;;;;5072599;28;20659;-83
2021/01/19 03:15:42;;;;;;;8.20;3.07;;;1.80;72.60;;;;;;5080243;28;20462;-83
2021/01/19 03:18:17;;;;;;;3.37;2.90;;;1.80;72.50;;;;;;5084150;28;20459;-83
2021/01/19 03:20:45;;;;;;;4.90;2.73;;;1.60;72.60;;;;;;5083466;28;20452;-82
2021/01/19 03:23:11;;;;;;;4.50;2.70;;;1.50;72.70;;;;;;5074123;28;20451;-82
2021/01/19 03:25:38;;;;;;;3.83;2.60;;;1.50;72.70;;;;;;5082574;28;20467;-82
2021/01/19 03:28:05;;;;;;;5.83;3.10;;;1.40;72.70;;;;;;5079800;28;20467;-82
2021/01/19 03:30:31;;;;;;;4.93;3.07;;;1.40;72.90;;;;;;5081357;28;20472;-82
2021/01/19 03:32:58;;;;;;;3.20;2.70;;;1.40;72.70;;;;;;5083973;28;20477;-81
2021/01/19 03:35:25;;;;;;;2.77;2.57;;;1.40;72.80;;;;;;5085188;28;20461;-81
2021/01/19 03:37:53;;;;;;;5.60;3.20;;;1.40;72.80;;;;;;5081383;28;20442;-81
2021/01/19 03:40:20;;;;;;;3.00;2.33;;;1.30;72.80;;;;;;5071860;28;20460;-82
2021/01/19 03:42:46;;;;;;;5.63;3.10;;;1.20;72.80;;;;;;5072012;28;20444;-82
2021/01/19 03:45:13;;;;;;;3.33;2.77;;;1.20;72.80;;;;;;5074902;28;20485;-82
2021/01/19 03:47:40;;;;;;;4.00;2.90;;;1.20;72.90;;;;;;5074327;28;20451;-82
2021/01/19 03:50:07;;;;;;;5.70;2.50;;;1.10;72.80;;;;;;5074506;28;20509;-82
2021/01/19 03:52:34;;;;;;;5.77;3.17;;;1.10;72.90;;;;;;5081366;28;20449;-83
2021/01/19 03:55:02;;;;;;;4.10;2.97;;;1.10;72.90;;;;;;5073050;28;20465;-82
2021/01/19 03:57:29;;;;;;;4.37;2.70;;;1.00;72.90;;;;;;5082658;28;20472;-83
2021/01/19 03:59:56;;;;;;;3.90;2.90;;;1.00;73.10;;;;;;5084301;28;20429;-84
2021/01/19 04:02:22;;;;;;;5.53;3.20;;;1.00;73.10;;;;;;5090359;28;20454;-83
2021/01/19 04:04:49;;;;;;;3.70;2.83;;;1.00;73.00;;;;;;5092736;28;20466;-81
2021/01/19 04:07:15;;;;;;;4.07;2.90;;;0.90;73.10;;;;;;5089603;28;20456;-80
2021/01/19 04:09:42;;;;;;;5.60;2.77;;;0.90;73.10;;;;;;5074852;28;20515;-81
2021/01/19 04:12:09;;;;;;;6.40;3.80;;;0.80;73.20;;;;;;5075066;28;20469;-82
2021/01/19 04:14:37;;;;;;;3.33;2.63;;;0.90;73.30;;;;;;5078599;28;20443;-81
2021/01/19 04:17:05;;;;;;;6.73;3.07;;;0.80;73.10;;;;;;5084164;28;21340;-82
2021/01/19 04:19:32;;;;;;;5.27;2.90;;;0.80;73.20;;;;;;5080496;28;20467;-82
2021/01/19 04:21:59;;;;;;;3.23;2.80;;;0.70;73.30;;;;;;5077105;28;20451;-82
2021/01/19 04:24:28;;;;;;;3.00;2.47;;;0.70;73.20;;;;;;5068576;28;20532;-82
2021/01/19 04:26:54;;;;;;;4.27;2.93;;;0.80;73.00;;;;;;5070631;28;20493;-83
2021/01/19 04:29:22;;;;;;;4.83;2.40;;;0.90;73.10;;;;;;5074571;28;20956;-81
2021/01/19 04:31:48;;;;;;;5.00;2.87;;;0.90;73.00;;;;;;5070896;28;20459;-81
2021/01/19 04:34:18;;;;;;;6.13;2.80;;;0.90;72.90;;;;;;5069886;28;20469;-83
2021/01/19 04:36:44;;;;;;;7.77;2.63;;;1.10;72.80;;;;;;5068183;28;20456;-83
2021/01/19 04:39:12;;;;;;;3.43;2.67;;;1.00;72.50;;;;;;5069846;28;20459;-83
2021/01/19 04:41:40;;;;;;;5.83;2.80;;;1.00;72.50;;;;;;5067731;28;20907;-83
2021/01/19 04:44:07;;;;;;;5.30;2.87;;;1.00;72.50;;;;;;5068472;28;20477;-83
2021/01/19 04:46:36;;;;;;;4.53;3.00;;;1.00;72.40;;;;;;5071896;28;20461;-83
2021/01/19 04:49:04;;;;;;;7.13;2.60;;;1.00;72.50;;;;;;5066617;28;20480;-83
2021/01/19 04:51:34;;;;;;;3.20;2.63;;;0.90;72.60;;;;;;5076589;28;20547;-82
2021/01/19 04:54:04;;;;;;;4.43;2.77;;;0.90;72.70;;;;;;5079835;28;20501;-82
2021/01/19 04:56:31;;;;;;;5.00;3.37;;;0.90;72.60;;;;;;5075666;28;20459;-82
2021/01/19 04:58:59;;;;;;;3.43;2.63;;;0.90;72.70;;;;;;5069424;28;20455;-82
2021/01/19 05:01:48;;;;;;;3.33;3.03;;;0.90;72.80;;;;;;5069801;28;21050;-82
2021/01/19 05:04:46;;;;;;;3.53;3.00;;;0.90;72.60;;;;;;5074380;28;20824;-82
2021/01/19 05:07:31;;;;;;;4.03;3.10;;;0.90;72.80;;;;;;5070871;28;20459;-82
2021/01/19 05:10:12;;;;;;;3.17;2.87;;;0.90;72.50;;;;;;5071255;28;20508;-82
2021/01/19 05:12:40;;;;;;;7.47;3.00;;;1.00;72.40;;;;;;5067722;28;20806;-82
2021/01/19 05:15:09;;;;;;;7.03;3.07;;;1.10;72.50;;;;;;5068272;28;20513;-82
2021/01/19 05:17:37;;;;;;;3.10;2.80;;;1.00;72.20;;;;;;5068200;28;20436;-82
2021/01/19 05:20:07;;;;;;;2.97;2.67;;;1.10;72.10;;;;;;5072810;28;20453;-83
2021/01/19 05:22:34;;;;;;;4.00;2.97;;;1.10;72.00;;;;;;5083622;28;20450;-83
2021/01/19 05:25:01;;;;;;;3.03;2.70;;;1.10;71.90;;;;;;5078037;28;20445;-82
2021/01/19 05:27:27;;;;;;;2.93;2.60;;;1.10;72.00;;;;;;5075829;28;20553;-82
2021/01/19 05:30:01;;;;;;;4.50;2.30;;;1.20;72.10;;;;;;5073533;28;20495;-85
2021/01/19 05:32:43;;;;;;;3.53;3.23;;;1.20;72.00;;;;;;5072891;28;20449;-83
2021/01/19 05:35:14;;;;;;;3.30;2.93;;;1.20;71.80;;;;;;5070275;28;20501;-83
2021/01/19 05:37:54;;;;;;;3.57;2.70;;;1.30;71.70;;;;;;5065883;28;20447;-83
2021/01/19 05:40:21;;;;;;;4.30;3.43;;;1.30;71.80;;;;;;5069002;28;20452;-83
2021/01/19 05:42:48;;;;;;;5.20;3.43;;;1.30;72.00;;;;;;5070478;28;20458;-81
2021/01/19 05:45:17;;;;;;;6.33;3.70;;;1.40;71.90;;;;;;5074193;28;20458;-81
2021/01/19 05:47:46;;;;;;;4.50;3.33;;;1.40;71.80;;;;;;5086413;28;20458;-83
2021/01/19 05:50:16;;;;;;;6.00;3.50;;;1.40;72.00;;;;;;5067976;28;20528;-84
2021/01/19 05:52:42;;;;;;;4.47;3.37;;;1.40;72.00;;;;;;5071114;28;20441;-84
2021/01/19 05:55:10;;;;;;;7.47;5.13;;;1.40;71.70;;;;;;5072022;28;22114;-83
2021/01/19 05:57:37;;;;;;;5.27;3.20;;;1.40;71.60;;;;;;5071092;28;20454;-81
2021/01/19 06:00:06;;;;;;;8.70;3.57;;;1.50;71.50;;;;;;5075051;28;20442;-83
2021/01/19 06:02:37;;;;;;;4.77;3.90;;;1.50;71.50;;;;;;5074925;28;20446;-81
2021/01/19 06:05:09;;;;;;;4.33;3.10;;;1.50;71.70;;;;;;5084575;28;20524;-82
2021/01/19 06:07:37;;;;;;;6.03;3.53;;;1.50;71.20;;;;;;5084370;28;20457;-84
2021/01/19 06:10:08;;;;;;;3.90;3.37;;;1.50;71.30;;;;;;5080325;28;20477;-84
2021/01/19 06:12:35;;;;;;;5.63;3.53;;;1.50;71.30;;;;;;5068206;28;20471;-84
2021/01/19 06:15:03;;;;;;;4.93;3.00;;;1.50;71.20;;;;;;5079685;28;20466;-81
2021/01/19 06:17:29;;;;;;;4.37;3.50;;;1.50;71.50;;;;;;5078688;28;20458;-84
2021/01/19 06:19:58;;;;;;;5.63;3.57;;;1.50;71.10;;;;;;5077443;28;20445;-81
2021/01/19 06:22:29;;;;;;;5.00;3.33;;;1.50;71.10;;;;;;5069270;28;20449;-82
2021/01/19 06:24:57;;;;;;;3.97;2.80;;;1.70;71.00;;;;;;5072063;28;20478;-84
2021/01/19 06:27:31;;;;;;;4.23;3.20;;;1.50;71.00;;;;;;5069359;28;20471;-82
2021/01/19 06:30:09;;;;;;;4.23;3.20;;;1.50;71.10;;;;;;5070505;28;20496;-83
2021/01/19 06:32:37;;;;;;;4.53;3.47;;;1.50;71.00;;;;;;5065185;28;20450;-83
2021/01/19 06:35:11;;;;;;;4.90;3.20;;;1.60;71.30;;;;;;5071908;28;20447;-82
2021/01/19 06:37:39;;;;;;;4.00;3.50;;;1.50;71.10;;;;;;5066798;28;20450;-84
2021/01/19 06:40:08;;;;;;;6.23;3.27;;;1.50;71.20;;;;;;5058826;28;20505;-78
2021/01/19 06:42:36;;;;;;;3.77;3.20;;;1.50;71.20;;;;;;5060170;28;20574;-90
2021/01/19 06:45:11;;;;;;;5.97;3.57;;;1.50;70.90;;;;;;5068203;28;20885;-78
2021/01/19 06:47:42;;;;;;;5.90;3.23;;;1.50;71.30;;;;;;5057947;28;20472;-74
2021/01/19 06:50:09;;;;;;;5.17;3.23;;;1.50;70.90;;;;;;5057088;28;20503;-75
2021/01/19 06:52:42;;;;;;;5.10;3.67;;;1.50;71.00;;;;;;5055704;28;20451;-76
2021/01/19 06:55:21;;;;;;;6.73;4.80;;;1.50;71.10;;;;;;5066095;28;20455;-76
2021/01/19 06:58:09;;;;;;;5.20;3.80;;;1.60;71.50;;;;;;5060165;28;20493;-76
2021/01/19 07:00:46;;;;;;;4.87;3.20;;;1.50;70.40;;;;;;5065962;28;20446;-78
2021/01/19 07:03:21;;;;;;;6.27;4.10;;;1.50;70.60;;;;;;5067408;28;20456;-76
2021/01/19 07:05:54;;;;;;;4.83;3.20;;;1.50;70.70;;;;;;5060950;28;20959;-77
2021/01/19 07:09:10;;;;;;;6.53;3.60;;;1.50;70.20;;;;;;5057230;28;20481;-75
2021/01/19 07:12:04;;;;;;;5.30;3.93;;;1.40;71.20;;;;;;5055643;28;20494;-75
2021/01/19 07:14:44;;;;;;;8.00;3.10;;;1.70;72.80;;;;;;5052342;28;20447;-75
2021/01/19 07:17:17;;;;;;;9.23;3.60;;;2.40;73.40;;;;;;5055185;28;20808;-76
2021/01/19 07:19:48;;;;;;;4.13;3.60;;;2.20;70.40;;;;;;5051440;28;20459;-75
2021/01/19 07:22:51;;;;;;;3.60;3.30;;;2.00;69.60;;;;;;5053921;28;20505;-76
2021/01/19 07:25:18;;;;;;;4.37;3.10;;;1.80;69.80;;;;;;5043264;28;20980;-75
2021/01/19 07:27:46;;;;;;;8.20;3.40;;;1.80;70.00;;;;;;5052511;28;20464;-75
2021/01/19 07:30:15;;;;;;;4.00;3.40;;;1.70;69.30;;;;;;5051307;28;20472;-76
2021/01/19 07:32:44;;;;;;;5.67;5.17;;;1.70;69.40;;;;;;5052746;28;20452;-75
2021/01/19 07:35:14;;;;;;;3.93;3.53;;;1.60;69.30;;;;;;5051804;28;21116;-75
2021/01/19 07:37:42;;;;;;;4.17;3.53;;;1.60;69.00;;;;;;5055904;28;20545;-75
2021/01/19 07:40:27;;;;;;;6.77;4.00;;;1.60;69.10;;;;;;5053802;28;20451;-75
2021/01/19 07:42:55;;;;;;;5.10;3.70;;;1.70;69.00;;;;;;5058294;28;20463;-77
2021/01/19 07:45:32;;;;;;;5.27;3.30;;;1.60;68.80;;;;;;5054991;28;21023;-76
2021/01/19 07:48:07;;;;;;;6.13;4.00;;;1.70;69.00;;;;;;5057470;28;20532;-76
2021/01/19 07:50:42;;;;;;;8.30;4.63;;;1.70;68.80;;;;;;5052593;28;21130;-75
2021/01/19 07:53:09;;;;;;;5.43;3.33;;;1.70;69.60;;;;;;5056819;28;20458;-74
2021/01/19 07:55:43;;;;;;;6.60;3.90;;;1.70;69.00;;;;;;5056495;28;20451;-76
2021/01/19 07:58:17;;;;;;;4.50;3.93;;;1.70;69.00;;;;;;5057977;28;20447;-75
2021/01/19 08:00:47;;;;;;;6.60;3.53;;;1.70;68.60;;;;;;5058454;28;20566;-74
2021/01/19 08:03:13;;;;;;;6.07;4.50;;;1.70;68.90;;;;;;5063327;28;20469;-80
2021/01/19 08:05:41;;;;;;;3.40;3.10;;;1.80;69.10;;;;;;5067813;28;20466;-86
2021/01/19 08:08:19;;;;;;;3.60;3.30;;;1.80;68.60;;;;;;5074650;28;20451;-86
2021/01/19 08:11:04;;;;;;;6.70;3.50;;;1.80;68.60;;;;;;5070735;28;20478;-84
2021/01/19 08:13:32;;;;;;;5.80;3.97;;;1.80;68.40;;;;;;5074802;28;20594;-86
2021/01/19 08:16:13;;;;;;;8.75;3.65;;;2.00;68.30;;;;;;5072548;28;20457;-92
2021/01/19 08:19:08;;;;;;;3.93;3.50;;;2.00;68.00;;;;;;5072124;28;20250;-88
2021/01/19 08:24:33;;;;;;;7.90;3.83;;;2.00;67.80;;;;;;5073456;28;20478;-86
2021/01/19 08:27:01;;;;;;;7.93;3.60;;;2.00;67.60;;;;;;5082497;28;20540;-86
2021/01/19 08:29:30;;;;;;;5.23;4.13;;;2.00;67.70;;;;;;5084322;28;20447;-84
2021/01/19 08:32:00;;;;;;;4.75;3.90;;;2.10;67.50;;;;;;5077968;28;20921;-85
2021/01/19 08:34:30;;;;;;;7.90;4.03;;;2.10;67.70;;;;;;5071356;28;20217;-85
2021/01/19 08:36:58;;;;;;;5.03;3.33;;;2.10;67.00;;;;;;5074944;28;20828;-87
2021/01/19 08:39:25;;;;;;;5.30;3.67;;;2.10;67.30;;;;;;5074870;28;20459;-87
2021/01/19 08:41:54;;;;;;;7.13;4.00;;;2.10;67.20;;;;;;5079213;28;20459;-89
2021/01/19 08:44:21;;;;;;;4.50;4.10;;;2.20;67.30;;;;;;5062702;28;20446;-77
2021/01/19 08:46:50;;;;;;;4.27;3.87;;;2.20;67.20;;;;;;5066249;28;20193;-79
2021/01/19 08:49:18;;;;;;;5.37;3.40;;;2.10;66.70;;;;;;5065753;28;20457;-78
2021/01/19 08:51:48;;;;;;;5.30;3.03;;;2.20;66.80;;;;;;5067197;28;20460;-80
2021/01/19 08:54:16;;;;;;;6.57;2.97;;;2.20;66.70;;;;;;5074829;28;20542;-80
2021/01/19 08:56:44;;;;;;;3.60;2.70;;;2.20;66.40;;;;;;5068162;28;20536;-80
2021/01/19 08:59:11;;;;;;;5.07;3.30;;;2.30;66.40;;;;;;5067655;28;20553;-80
2021/01/19 09:01:48;;;;;;;5.27;3.70;;;2.50;65.80;;;;;;5067845;28;20445;-80
2021/01/19 09:04:23;;;;;;;5.80;3.70;;;2.50;66.10;;;;;;5069120;28;20482;-85
2021/01/19 09:06:50;;;;;;;4.80;3.40;;;2.50;66.10;;;;;;5074958;28;20539;-84
2021/01/19 09:09:21;;;;;;;5.57;3.97;;;2.60;66.20;;;;;;5074517;28;20452;-83
2021/01/19 09:11:51;;;;;;;11.40;10.33;;;2.70;66.00;;;;;;5072863;28;20498;-86
2021/01/19 09:14:23;;;;;;;5.03;3.67;;;2.70;66.00;;;;;;5077010;28;20531;-86
2021/01/19 09:16:51;;;;;;;5.53;3.50;;;2.70;65.90;;;;;;5084239;28;20482;-85
2021/01/19 09:19:22;;;;;;;4.10;2.97;;;2.80;65.30;;;;;;5081643;28;20559;-83
2021/01/19 09:21:50;;;;;;;7.53;3.43;;;2.80;65.00;;;;;;5080818;28;20475;-85
2021/01/19 09:24:20;;;;;;;5.00;3.60;;;2.90;65.10;;;;;;5072612;28;20512;-84
2021/01/19 09:26:58;;;;;;;6.33;3.47;;;2.90;64.80;;;;;;5078786;28;20487;-86
2021/01/19 09:32:07;;;;;;;6.43;3.58;;;3.20;64.40;;;;;;5069790;28;20466;-85
2021/01/19 09:34:35;;;;;;;4.97;3.87;;;3.20;63.60;;;;;;5073334;28;20670;-83
2021/01/19 09:37:04;;;;;;;4.13;3.40;;;3.20;64.00;;;;;;5067986;28;20463;-86
2021/01/19 09:39:36;;;;;;;7.43;3.70;;;3.30;63.50;;;;;;5066903;28;20449;-81
2021/01/19 09:42:04;;;;;;;6.53;3.73;;;3.40;63.60;;;;;;5063786;28;20449;-81
2021/01/19 09:44:32;;;;;;;5.27;4.00;;;3.50;63.10;;;;;;5061916;28;20552;-82
2021/01/19 09:47:03;;;;;;;4.97;3.80;;;3.50;63.00;;;;;;5066637;28;20456;-83
2021/01/19 09:49:31;;;;;;;14.18;4.97;;;3.50;62.80;;;;;;5065013;28;20449;-89
2021/01/19 09:52:13;;;;;;;6.97;4.63;;;3.60;63.00;;;;;;5071966;28;20285;-87
2021/01/19 09:54:40;;;;;;;4.10;3.70;;;3.60;62.50;;;;;;5073831;28;20451;-87
2021/01/19 09:57:08;;;;;;;6.60;3.87;;;3.60;62.60;;;;;;5072113;28;20528;-88
2021/01/19 09:59:36;;;;;;;5.23;3.97;;;3.60;62.50;;;;;;5072607;28;20459;-87
2021/01/19 10:02:05;;;;;;;3.57;3.27;;;3.70;62.70;;;;;;5072685;28;20957;-86
2021/01/19 10:04:33;;;;;;;6.83;3.83;;;3.80;61.80;;;;;;5070491;28;20608;-85
2021/01/19 10:07:07;;;;;;;11.63;4.38;;;4.10;61.80;;;;;;5076936;28;20449;-87
2021/01/19 10:09:37;;;;;;;4.47;3.30;;;4.10;61.30;;;;;;5066892;28;20445;-89
2021/01/19 10:15:01;;;;;;;6.40;3.70;;;4.20;61.00;;;;;;5082623;28;20441;-87
2021/01/19 10:17:31;;;;;;;6.20;4.00;;;4.20;59.90;;;;;;5065878;28;20464;-87
2021/01/19 10:23:29;;;;;;;8.83;3.70;;;4.00;59.70;;;;;;5068012;28;20482;-85
2021/01/19 10:26:12;;;;;;;6.83;4.20;;;4.10;59.90;;;;;;5065267;28;20459;-85
2021/01/19 10:28:42;;;;;;;38.23;6.30;;;4.10;59.70;;;;;;5066128;28;20799;-85
2021/01/19 10:31:24;;;;;;;4.77;3.90;;;4.00;60.00;;;;;;5063122;28;20568;-86
2021/01/19 10:34:00;;;;;;;6.30;3.67;;;4.00;59.50;;;;;;5078428;28;20522;-84
2021/01/19 10:36:30;;;;;;;8.77;4.10;;;4.00;59.90;;;;;;5073847;28;20607;-88
2021/01/19 10:39:07;;;;;;;21.37;4.23;;;4.00;59.50;;;;;;5074481;28;20510;-88
2021/01/19 10:41:41;;;;;;;5.53;3.87;;;3.90;59.30;;;;;;5072063;28;20575;-85
2021/01/19 10:44:13;;;;;;;6.50;4.20;;;4.00;59.40;;;;;;5076785;28;20461;-85
2021/01/19 10:46:41;;;;;;;11.07;4.20;;;4.10;59.60;;;;;;5075648;28;20997;-86
2021/01/19 10:49:10;;;;;;;14.20;4.47;;;4.00;59.40;;;;;;5072560;28;20448;-86
2021/01/19 10:51:38;;;;;;;7.50;4.40;;;4.20;59.30;;;;;;5071128;28;20487;-86
2021/01/19 10:54:10;;;;;;;5.70;4.78;;;4.10;59.10;;;;;;5069306;28;20446;-88
2021/01/19 10:56:40;;;;;;;12.27;4.37;;;4.10;59.40;;;;;;5064580;28;20202;-87
2021/01/19 10:59:09;;;;;;;10.20;4.03;;;4.00;59.50;;;;;;5073628;28;20513;-87
2021/01/19 11:01:37;;;;;;;10.18;4.70;;;4.10;59.10;;;;;;5074384;28;21128;-83
2021/01/19 11:04:06;;;;;;;10.10;4.90;;;4.00;59.70;;;;;;5073199;28;20220;-88
2021/01/19 11:06:40;;;;;;;7.32;4.50;;;4.00;59.10;;;;;;5076232;28;20450;-87
2021/01/19 11:09:32;;;;;;;9.63;5.38;;;4.00;59.40;;;;;;5087220;28;20442;-86
2021/01/19 11:12:01;;;;;;;6.40;4.07;;;3.80;59.20;;;;;;5082165;28;20219;-86
2021/01/19 11:14:28;;;;;;;8.63;4.47;;;3.90;59.40;;;;;;5073993;28;20481;-78
2021/01/19 11:16:57;;;;;;;6.23;4.57;;;4.00;59.50;;;;;;5083860;28;20477;-79
2021/01/19 11:19:33;;;;;;;5.60;4.57;;;3.90;59.30;;;;;;5083334;28;20450;-81
2021/01/19 11:22:00;;;;;;;6.50;4.47;;;3.90;59.50;;;;;;5076890;28;20460;-81
2021/01/19 11:24:28;;;;;;;5.60;4.37;;;3.80;59.60;;;;;;5066230;28;21037;-82
2021/01/19 11:26:56;;;;;;;7.50;5.43;;;3.60;59.60;;;;;;5073062;28;20557;-83
2021/01/19 11:29:24;;;;;;;7.43;4.77;;;3.70;59.90;;;;;;5070683;28;20458;-85
2021/01/19 11:31:53;;;;;;;8.17;4.90;;;3.60;59.80;;;;;;5073344;28;20464;-81
2021/01/19 11:34:20;;;;;;;7.93;4.60;;;3.60;60.30;;;;;;5065386;28;20449;-82
2021/01/19 11:36:46;;;;;;;6.40;4.97;;;3.50;60.40;;;;;;5065884;28;20506;-82
2021/01/19 11:39:14;;;;;;;5.10;4.60;;;3.50;61.10;;;;;;5066673;28;20528;-81
2021/01/19 11:41:43;;;;;;;6.77;5.27;;;3.50;61.30;;;;;;5075127;28;20521;-81
2021/01/19 11:44:13;;;;;;;8.30;4.70;;;3.50;61.80;;;;;;5074106;28;20470;-82
2021/01/19 11:46:39;;;;;;;7.10;5.07;;;3.70;61.70;;;;;;5068990;28;20471;-83
2021/01/19 11:49:07;;;;;;;6.40;5.13;;;3.70;61.60;;;;;;5064536;28;20452;-81
2021/01/19 11:51:36;;;;;;;10.73;5.73;;;3.70;61.40;;;;;;5070095;28;20477;-81
2021/01/19 11:54:06;;;;;;;5.33;4.83;;;3.60;61.20;;;;;;5075495;28;20463;-82
2021/01/19 11:56:34;;;;;;;8.67;6.27;;;3.60;61.70;;;;;;5071308;28;20452;-82
2021/01/19 11:59:01;;;;;;;5.67;5.17;;;3.50;61.30;;;;;;5076062;28;20475;-81
2021/01/19 12:01:32;;;;;;;9.60;6.87;;;3.50;61.70;;;;;;5078184;28;20480;-82
2021/01/19 12:03:59;;;;;;;8.23;5.13;;;3.50;61.90;;;;;;5071043;28;20472;-83
2021/01/19 12:06:26;;;;;;;10.10;6.10;;;3.20;62.00;;;;;;5068713;28;20459;-81
2021/01/19 12:08:53;;;;;;;10.33;6.97;;;2.90;62.90;;;;;;5074990;28;20490;-84
2021/01/19 12:11:21;;;;;;;8.67;5.97;;;2.80;64.10;;;;;;5066989;28;21196;-83
2021/01/19 12:13:48;;;;;;;11.40;7.37;;;2.70;64.50;;;;;;5074971;28;20476;-84
2021/01/19 12:16:20;;;;;;;8.40;6.17;;;2.70;65.40;;;;;;5070719;28;20526;-86
2021/01/19 12:18:49;;;;;;;9.20;6.10;;;2.80;65.30;;;;;;5069489;28;20479;-81
2021/01/19 12:21:17;;;;;;;9.80;6.20;;;2.80;65.50;;;;;;5067280;28;20460;-82
2021/01/19 12:23:45;;;;;;;7.93;6.70;;;2.90;65.70;;;;;;5078103;28;20526;-82
2021/01/19 12:26:15;;;;;;;10.90;7.20;;;3.00;66.00;;;;;;5075688;28;20452;-82
2021/01/19 12:28:42;;;;;;;11.17;7.53;;;3.10;66.00;;;;;;5075255;28;20448;-82
2021/01/19 12:31:10;;;;;;;9.30;7.50;;;3.00;65.70;;;;;;5069719;28;20468;-83
2021/01/19 12:33:38;;;;;;;9.67;7.60;;;3.00;66.50;;;;;;5072958;28;20974;-81
2021/01/19 12:36:06;;;;;;;9.73;7.67;;;2.80;66.70;;;;;;5079220;28;20451;-81
2021/01/19 12:38:33;;;;;;;11.30;8.43;;;2.80;67.40;;;;;;5074087;28;20475;-82
2021/01/19 12:40:59;;;;;;;12.90;8.70;;;2.70;68.20;;;;;;5073307;28;20457;-82
2021/01/19 12:43:26;;;;;;;10.67;8.20;;;2.70;68.20;;;;;;5075796;28;20464;-82
2021/01/19 12:45:54;;;;;;;13.00;7.60;;;2.70;69.20;;;;;;5072986;28;20457;-81
2021/01/19 12:48:21;;;;;;;14.70;9.47;;;2.60;69.80;;;;;;5069325;28;20468;-82
2021/01/19 12:50:48;;;;;;;11.47;7.70;;;2.60;70.70;;;;;;5073372;28;20986;-82
2021/01/19 12:53:16;;;;;;;12.90;8.53;;;2.50;70.60;;;;;;5068387;28;20547;-82
2021/01/19 12:55:43;;;;;;;11.63;8.73;;;2.40;71.60;;;;;;5064787;28;20514;-82
2021/01/19 12:58:10;;;;;;;14.20;9.37;;;2.40;72.70;;;;;;5071289;28;20490;-85
2021/01/19 13:00:39;;;;;;;12.83;8.30;;;2.40;72.40;;;;;;5066997;28;20446;-83
2021/01/19 13:03:08;;;;;;;9.63;7.63;;;2.30;72.70;;;;;;5070821;28;20466;-81
2021/01/19 13:05:37;;;;;;;12.27;7.90;;;2.40;73.30;;;;;;5075433;28;20456;-83
2021/01/19 13:08:06;;;;;;;11.50;8.23;;;2.40;73.10;;;;;;5070235;28;20523;-85
2021/01/19 13:10:39;;;;;;;14.57;8.57;;;2.30;73.30;;;;;;5075027;28;20558;-85
2021/01/19 13:13:08;;;;;;;11.43;8.77;;;2.30;73.40;;;;;;5069624;28;20519;-83
2021/01/19 13:15:38;;;;;;;11.77;8.23;;;2.30;73.20;;;;;;5073262;28;20510;-85
2021/01/19 13:18:06;;;;;;;13.20;8.90;;;2.30;73.80;;;;;;5071902;28;20456;-86
2021/01/19 13:20:36;;;;;;;11.97;8.60;;;2.50;74.90;;;;;;5073726;28;20479;-84
2021/01/19 13:23:04;;;;;;;14.50;9.70;;;2.40;74.10;;;;;;5074894;28;20454;-83